KIKK/IKK METAR and TAF weather

Enter ICAO airport designator
Station Type Date Time Source
KIKK METAR 2022/11/30 23:15 UTC NOAA

KIKK 302315Z AUTO 27015G22KT 10SM CLR M03/M10 A3024 RMK AO2 T10301100


Station Type Date Time Source
KIKK Decoded METAR 2022/11/30 23:15 UTC NOAA

Kankakee, Greater Kankakee Airport, IL, United States (KIKK) 41-04-17N 087-50-47W
Nov 30, 2022 - 06:15 PM EST / 2022.11.30 2315 UTC
Wind: from the W (270 degrees) at 17 MPH (15 KT) gusting to 25 MPH (22 KT):0
Visibility: 10 mile(s):0
Sky conditions: clear
Temperature: 26.6 F (-3.0 C)
Windchill: 14 F (-10 C):1
Dew Point: 14.0 F (-10.0 C)
Relative Humidity: 58%
Pressure (altimeter): 30.24 in. Hg (1024 hPa)
ob: KIKK 302315Z AUTO 27015G22KT 10SM CLR M03/M10 A3024 RMK AO2 T10301100
cycle: 23

Station Type Date Time Source
KIKK TAF UTC NOAA

Error!

Example: see airport list